Time,TemperatureF,DewpointF,PressureIn,WindDirection,WindDirectionDegrees,WindSpeedMPH,WindSpeedGustMPH,Humidity,HourlyPrecipIn,Conditions,Clouds,dailyrainin,SoftwareType,DateUTC
2013-02-12 00:08:00,59.4,59.1,29.88,South,180,0.0,-999.0,99,-99.99,,,0.03,Acu-Link.com,2013-02-12 05:08:00,
2013-02-12 00:23:00,59.2,58.9,29.87,SSW,202,0.0,-999.0,99,-99.99,,,0.06,Acu-Link.com,2013-02-12 05:23:00,
2013-02-12 00:38:00,59.2,58.9,29.86,WNW,292,1.1,-999.0,99,-99.99,,,0.07,Acu-Link.com,2013-02-12 05:38:00,
2013-02-12 00:54:00,59.2,58.9,29.88,North,0,2.2,-999.0,99,-99.99,,,0.08,Acu-Link.com,2013-02-12 05:54:00,
2013-02-12 01:09:00,59.2,58.9,29.87,SW,225,1.1,-999.0,99,-99.99,,,0.15,Acu-Link.com,2013-02-12 06:09:00,
2013-02-12 01:24:00,59.2,58.9,29.85,SSE,157,0.0,-999.0,99,-99.99,,,0.15,Acu-Link.com,2013-02-12 06:24:00,
2013-02-12 01:39:00,59.0,58.7,29.84,SSW,202,0.0,-999.0,99,-99.99,,,0.16,Acu-Link.com,2013-02-12 06:39:00,
2013-02-12 01:54:00,59.0,58.7,29.83,WNW,292,0.0,-999.0,99,-99.99,,,0.16,Acu-Link.com,2013-02-12 06:54:00,
2013-02-12 02:09:00,59.0,58.7,29.85,WNW,292,0.0,-999.0,99,-99.99,,,0.16,Acu-Link.com,2013-02-12 07:09:00,
2013-02-12 02:25:00,58.8,58.5,29.84,West,270,1.7,-999.0,99,-99.99,,,0.16,Acu-Link.com,2013-02-12 07:25:00,
2013-02-12 02:40:00,58.8,58.5,29.83,West,270,0.0,-999.0,99,-99.99,,,0.17,Acu-Link.com,2013-02-12 07:40:00,
2013-02-12 03:03:00,58.8,58.5,29.83,West,270,0.0,-999.0,99,-99.99,,,0.18,Acu-Link.com,2013-02-12 08:03:00,
2013-02-12 03:22:00,58.8,58.5,29.83,NNW,337,0.0,-999.0,99,-99.99,,,0.19,Acu-Link.com,2013-02-12 08:22:00,
2013-02-12 03:38:00,58.8,58.5,29.81,WNW,292,0.0,-999.0,99,-99.99,,,0.22,Acu-Link.com,2013-02-12 08:38:00,
2013-02-12 03:53:00,58.8,58.5,29.83,SW,225,2.2,-999.0,99,-99.99,,,0.23,Acu-Link.com,2013-02-12 08:53:00,
2013-02-12 04:19:00,58.8,58.5,29.83,West,270,0.0,-999.0,99,-99.99,,,0.25,Acu-Link.com,2013-02-12 09:19:00,
2013-02-12 04:34:00,58.8,58.5,29.83,West,270,1.1,-999.0,99,-99.99,,,0.30,Acu-Link.com,2013-02-12 09:34:00,
2013-02-12 04:49:00,58.8,58.5,29.81,SW,225,0.0,-999.0,99,-99.99,,,0.31,Acu-Link.com,2013-02-12 09:49:00,
2013-02-12 05:04:00,58.6,58.3,29.82,West,270,3.7,-999.0,99,-99.99,,,0.31,Acu-Link.com,2013-02-12 10:04:00,
2013-02-12 05:19:00,58.8,58.5,29.84,West,270,4.2,-999.0,99,-99.99,,,0.32,Acu-Link.com,2013-02-12 10:19:00,
2013-02-12 05:34:00,58.8,58.5,29.84,West,270,4.7,-999.0,99,-99.99,,,0.39,Acu-Link.com,2013-02-12 10:34:00,
2013-02-12 05:49:00,58.8,58.5,29.83,SSW,202,2.2,-999.0,99,-99.99,,,0.40,Acu-Link.com,2013-02-12 10:49:00,
2013-02-12 06:04:00,58.8,58.5,29.81,ESE,112,3.2,-999.0,99,-99.99,,,0.41,Acu-Link.com,2013-02-12 11:04:00,
2013-02-12 06:19:00,58.8,58.5,29.80,NW,315,2.7,-999.0,99,-99.99,,,0.42,Acu-Link.com,2013-02-12 11:19:00,
2013-02-12 06:35:00,58.8,58.5,29.80,NNE,22,2.7,-999.0,99,-99.99,,,0.43,Acu-Link.com,2013-02-12 11:35:00,
2013-02-12 06:50:00,58.8,58.5,29.82,West,270,4.2,-999.0,99,-99.99,,,0.43,Acu-Link.com,2013-02-12 11:50:00,
2013-02-12 07:05:00,58.8,58.5,29.84,West,270,4.7,-999.0,99,-99.99,,,0.43,Acu-Link.com,2013-02-12 12:05:00,
2013-02-12 07:20:00,58.8,58.5,29.85,West,270,3.7,-999.0,99,-99.99,,,0.45,Acu-Link.com,2013-02-12 12:20:00,
2013-02-12 07:36:00,58.8,58.5,29.85,WNW,292,3.7,-999.0,99,-99.99,,,0.46,Acu-Link.com,2013-02-12 12:36:00,
2013-02-12 07:51:00,58.8,58.5,29.84,West,270,1.7,-999.0,99,-99.99,,,0.47,Acu-Link.com,2013-02-12 12:51:00,
2013-02-12 08:06:00,58.8,58.5,29.84,WNW,292,2.7,-999.0,99,-99.99,,,0.50,Acu-Link.com,2013-02-12 13:06:00,
2013-02-12 08:21:00,58.8,58.5,29.84,NW,315,3.7,-999.0,99,-99.99,,,0.50,Acu-Link.com,2013-02-12 13:21:00,
2013-02-12 08:36:00,58.8,58.5,29.83,WNW,292,2.7,-999.0,99,-99.99,,,0.50,Acu-Link.com,2013-02-12 13:36:00,
2013-02-12 08:52:00,58.8,58.5,29.87,West,270,5.8,-999.0,99,-99.99,,,0.50,Acu-Link.com,2013-02-12 13:52:00,
2013-02-12 09:07:00,57.9,57.6,29.88,WNW,292,5.3,-999.0,99,-99.99,,,0.51,Acu-Link.com,2013-02-12 14:07:00,
2013-02-12 09:22:00,57.4,57.1,29.89,NNW,337,7.3,-999.0,99,-99.99,,,0.55,Acu-Link.com,2013-02-12 14:22:00,
2013-02-12 09:37:00,57.4,57.1,29.91,WNW,292,6.8,-999.0,99,-99.99,,,0.57,Acu-Link.com,2013-02-12 14:37:00,
2013-02-12 09:52:00,57.0,56.7,29.90,WNW,292,4.7,-999.0,99,-99.99,,,0.68,Acu-Link.com,2013-02-12 14:52:00,
2013-02-12 10:08:00,56.8,56.5,29.89,WNW,292,4.7,-999.0,99,-99.99,,,0.72,Acu-Link.com,2013-02-12 15:08:00,
2013-02-12 10:23:00,55.4,55.1,29.90,NNW,337,8.3,-999.0,99,-99.99,,,0.74,Acu-Link.com,2013-02-12 15:23:00,
2013-02-12 10:38:00,54.1,53.8,29.89,NNE,22,6.8,-999.0,99,-99.99,,,0.77,Acu-Link.com,2013-02-12 15:38:00,
2013-02-12 10:54:00,53.2,52.9,29.90,NNW,337,5.8,-999.0,99,-99.99,,,0.78,Acu-Link.com,2013-02-12 15:54:00,
2013-02-12 11:09:00,53.1,52.8,29.89,NNE,22,7.8,-999.0,99,-99.99,,,0.78,Acu-Link.com,2013-02-12 16:09:00,
2013-02-12 11:24:00,53.6,53.3,29.88,North,0,4.2,-999.0,99,-99.99,,,0.78,Acu-Link.com,2013-02-12 16:24:00,
2013-02-12 11:39:00,54.0,53.7,29.86,NE,45,1.7,-999.0,99,-99.99,,,0.78,Acu-Link.com,2013-02-12 16:39:00,
2013-02-12 11:54:00,53.8,53.5,29.86,ENE,67,4.2,-999.0,99,-99.99,,,0.78,Acu-Link.com,2013-02-12 16:54:00,
2013-02-12 12:10:00,53.6,53.3,29.84,North,0,4.2,-999.0,99,-99.99,,,0.78,Acu-Link.com,2013-02-12 17:10:00,
2013-02-12 12:25:00,54.7,54.4,29.85,North,0,6.3,-999.0,99,-99.99,,,0.78,Acu-Link.com,2013-02-12 17:25:00,
2013-02-12 12:40:00,54.7,54.1,29.84,NNE,22,4.2,-999.0,98,-99.99,,,0.78,Acu-Link.com,2013-02-12 17:40:00,
2013-02-12 12:55:00,55.4,54.6,29.84,NE,45,3.7,-999.0,97,-99.99,,,0.78,Acu-Link.com,2013-02-12 17:55:00,
2013-02-12 13:10:00,56.8,55.7,29.82,NNE,22,1.7,-999.0,96,-99.99,,,0.78,Acu-Link.com,2013-02-12 18:10:00,
2013-02-12 13:25:00,57.4,55.4,29.82,NE,45,4.7,-999.0,93,-99.99,,,0.78,Acu-Link.com,2013-02-12 18:25:00,
2013-02-12 13:41:00,58.3,56.0,29.81,NE,45,5.3,-999.0,92,-99.99,,,0.78,Acu-Link.com,2013-02-12 18:41:00,
2013-02-12 13:56:00,58.5,55.9,29.80,East,90,3.2,-999.0,91,-99.99,,,0.78,Acu-Link.com,2013-02-12 18:56:00,
2013-02-12 14:11:00,59.0,56.4,29.79,NE,45,6.8,-999.0,91,-99.99,,,0.78,Acu-Link.com,2013-02-12 19:11:00,
2013-02-12 14:27:00,60.1,56.2,29.80,NE,45,4.7,-999.0,87,-99.99,,,0.78,Acu-Link.com,2013-02-12 19:27:00,
2013-02-12 14:42:00,59.7,55.8,29.78,East,90,6.8,-999.0,87,-99.99,,,0.78,Acu-Link.com,2013-02-12 19:42:00,
2013-02-12 14:57:00,59.9,55.1,29.79,East,90,4.2,-999.0,84,-99.99,,,0.78,Acu-Link.com,2013-02-12 19:57:00,
2013-02-12 15:12:00,59.7,55.2,29.78,East,90,1.7,-999.0,85,-99.99,,,0.78,Acu-Link.com,2013-02-12 20:12:00,
2013-02-12 15:28:00,59.5,55.0,29.77,SSE,157,2.7,-999.0,85,-99.99,,,0.78,Acu-Link.com,2013-02-12 20:28:00,
2013-02-12 15:43:00,59.5,55.3,29.75,East,90,3.7,-999.0,86,-99.99,,,0.78,Acu-Link.com,2013-02-12 20:43:00,
2013-02-12 15:58:00,59.4,56.2,29.76,ESE,112,5.8,-999.0,89,-99.99,,,0.78,Acu-Link.com,2013-02-12 20:58:00,
2013-02-12 16:13:00,58.3,55.7,29.78,SSW,202,1.1,-999.0,91,-99.99,,,0.78,Acu-Link.com,2013-02-12 21:13:00,
2013-02-12 16:28:00,57.4,55.4,29.78,ESE,112,0.0,-999.0,93,-99.99,,,0.78,Acu-Link.com,2013-02-12 21:28:00,
2013-02-12 16:44:00,55.9,54.5,29.75,ENE,67,3.7,-999.0,95,-99.99,,,0.79,Acu-Link.com,2013-02-12 21:44:00,
2013-02-12 16:59:00,54.9,54.3,29.73,East,90,5.3,-999.0,98,-99.99,,,0.82,Acu-Link.com,2013-02-12 21:59:00,
2013-02-12 17:14:00,54.7,54.4,29.76,ENE,67,2.7,-999.0,99,-99.99,,,0.86,Acu-Link.com,2013-02-12 22:14:00,
2013-02-12 17:29:00,54.3,54.0,29.74,ESE,112,2.7,-999.0,99,-99.99,,,0.87,Acu-Link.com,2013-02-12 22:29:00,
2013-02-12 17:45:00,54.1,53.8,29.76,SE,135,0.0,-999.0,99,-99.99,,,0.87,Acu-Link.com,2013-02-12 22:45:00,
2013-02-12 18:00:00,54.0,53.7,29.77,SSW,202,0.0,-999.0,99,-99.99,,,0.88,Acu-Link.com,2013-02-12 23:00:00,
2013-02-12 18:15:00,53.8,53.5,29.77,ESE,112,0.0,-999.0,99,-99.99,,,0.91,Acu-Link.com,2013-02-12 23:15:00,
2013-02-12 18:30:00,53.1,52.8,29.77,NE,45,1.7,-999.0,99,-99.99,,,0.98,Acu-Link.com,2013-02-12 23:30:00,
2013-02-12 18:45:00,52.9,52.6,29.75,NE,45,3.2,-999.0,99,-99.99,,,1.01,Acu-Link.com,2013-02-12 23:45:00,
2013-02-12 19:01:00,52.0,51.7,29.69,East,90,9.4,-999.0,99,-99.99,,,1.10,Acu-Link.com,2013-02-13 00:01:00,
2013-02-12 19:16:00,52.0,51.7,29.74,NE,45,3.7,-999.0,99,-99.99,,,1.14,Acu-Link.com,2013-02-13 00:16:00,
2013-02-12 19:32:00,52.0,51.7,29.74,NE,45,2.7,-999.0,99,-99.99,,,1.23,Acu-Link.com,2013-02-13 00:32:00,
2013-02-12 19:47:00,52.0,51.7,29.74,NE,45,4.2,-999.0,99,-99.99,,,1.27,Acu-Link.com,2013-02-13 00:47:00,
2013-02-12 20:02:00,52.0,51.7,29.72,ENE,67,4.7,-999.0,99,-99.99,,,1.29,Acu-Link.com,2013-02-13 01:02:00,
2013-02-12 20:17:00,52.3,52.0,29.72,NE,45,3.7,-999.0,99,-99.99,,,1.32,Acu-Link.com,2013-02-13 01:17:00,
2013-02-12 20:33:00,52.5,52.2,29.71,NE,45,4.7,-999.0,99,-99.99,,,1.34,Acu-Link.com,2013-02-13 01:33:00,
2013-02-12 20:48:00,52.0,51.7,29.69,East,90,8.3,-999.0,99,-99.99,,,1.35,Acu-Link.com,2013-02-13 01:48:00,
2013-02-12 21:03:00,52.0,51.7,29.69,East,90,6.3,-999.0,99,-99.99,,,1.35,Acu-Link.com,2013-02-13 02:03:00,
2013-02-12 21:18:00,51.8,51.5,29.68,ENE,67,4.7,-999.0,99,-99.99,,,1.37,Acu-Link.com,2013-02-13 02:18:00,
2013-02-12 21:34:00,52.0,51.7,29.69,East,90,2.7,-999.0,99,-99.99,,,1.40,Acu-Link.com,2013-02-13 02:34:00,
2013-02-12 21:49:00,51.4,51.1,29.72,West,270,14.0,-999.0,99,-99.99,,,1.52,Acu-Link.com,2013-02-13 02:49:00,
2013-02-12 22:04:00,52.2,51.9,29.71,WNW,292,7.3,-999.0,99,-99.99,,,1.66,Acu-Link.com,2013-02-13 03:04:00,
2013-02-12 22:19:00,51.8,51.5,29.70,North,0,5.8,-999.0,99,-99.99,,,1.93,Acu-Link.com,2013-02-13 03:19:00,
2013-02-12 22:35:00,51.8,51.5,29.69,ENE,67,4.2,-999.0,99,-99.99,,,2.01,Acu-Link.com,2013-02-13 03:35:00,
2013-02-12 22:50:00,51.6,51.3,29.67,ENE,67,7.3,-999.0,99,-99.99,,,2.03,Acu-Link.com,2013-02-13 03:50:00,
2013-02-12 23:05:00,51.8,51.5,29.67,NE,45,5.3,-999.0,99,-99.99,,,2.05,Acu-Link.com,2013-02-13 04:05:00,
2013-02-12 23:20:00,52.0,51.7,29.66,East,90,6.3,-999.0,99,-99.99,,,2.15,Acu-Link.com,2013-02-13 04:20:00,
2013-02-12 23:36:00,52.2,51.9,29.66,NE,45,6.8,-999.0,99,-99.99,,,2.16,Acu-Link.com,2013-02-13 04:36:00,
2013-02-12 23:51:00,52.5,52.2,29.66,NE,45,3.7,-999.0,99,-99.99,,,2.16,Acu-Link.com,2013-02-13 04:51:00,